Warning: Javascript must be enabled to use all the features on this page!


Page Loading - Please Wait...

Click to hideNews Bulletins

Peak Streamflow for the Nation

USGS 14159200 SO FK MCKENZIE RIVER ABV COUGAR LAKE NR RAINBOW OR

Lane County, Oregon
Hydrologic Unit Code 17090004
Latitude  44°02'50", Longitude 122°13'00" NAD27
Drainage area 160  square miles
Gage datum 1,709.51 feet above NGVD29
Output formats
Table
Graph
Tab-separated file
peakfq (watstore) format
Reselect output format
Water
Year
Date Gage
Height
(feet)
Stream-
flow
(cfs)
1958 1958-02-16 10.80 6,760
1959 1959-01-27 8.56 3,430
1960 1960-02-08 7.60 2,400
1961 1960-11-24 11.83 7,000
1962 1961-11-22 10.45 5,350
1963 1963-02-03 8.73 3,680
1964 1963-11-08 8.91 3,890
1965 1964-12-22 20.06 18,400
1966 1966-01-06 8.91 3,450
1967 1967-01-28 8.79 3,330
1968 1968-02-23 10.67 5,320
1969 1968-11-09 11.56 6,430
1970 1970-01-22 10.78 5,460
1971 1971-01-18 14.37 10,100
1972 1972-01-21 13.11 8,440
1973 1972-12-19 7.70 2,430
1974 1974-01-15 10.32 4,920
1975 1974-12-20 9.59 4,150
1976 1976-01-08 10.19 4,780
1977 1977-05-03 5.73 1,070
1978 1977-11-25 12.89 8,130
1979 1978-12-04 10.79 5,390
1980 1980-01-12 11.74 6,620
1981 1980-12-25 10.31 4,910
1982 1981-12-06 12.82 8,030
1983 1983-02-17 9.32 3,880
1984 1983-12-14 11.78 6,680
1985 1984-11-02 9.17 3,730
1986 1986-02-23 13.16 8,490
1987 1986-11-28 8.30 2,930
2001 2001-05-16 7.08 1,840
2002 2002-04-14 11.12 6,140
2003 2003-01-30 10.64 5,590
2004 2003-12-13 11.13 6,150
2005 2004-12-09 9.61 4,420
2006 2005-12-30 13.23 8,660
2007 2006-12-14 10.03 4,880
2008 2008-05-17 9.08 3,860
2009 2008-12-29 9.32 4,110
2010 2010-06-04 9.02 3,800
2011 2011-01-16 14.38 10,200
2012 2012-01-19 10.95 5,940
2013 2012-12-05 11.10 6,120
2014 2014-02-14 12.42 7,670
2015 2014-12-21 13.41 9,460
2016 2015-12-17 9.65 4,350
2017 2017-03-09 8.95 3,560
2018 2017-10-22 9.28 3,920
2019 2019-04-08 12.93 8,740
2020 2020-01-28 7.58 2,270